sim
Sign-in with your pilot id or email,
or register
Callsign
Passwort

Schedule Details

Flight Number: OEO3261
Departure: Tampere Pirkkala Airport (EFTP) at 14:10
Arrival: Munich Airport (EDDM) at 16:55

Weather Information
Getting current METAR information for EFTP 251020Z VRB02KT 9999 FEW028 17/10 Q1008
Getting current METAR information for EDDM 251020Z 26005KT 9999 -RA FEW012 SCT020 BKN040 10/08 Q1002 NOSIG

Schedule Frequency

Route Map